createdAt,value
2024-01-11T04:39:52.165Z,101653.66
2024-01-11T04:42:55.635Z,101653.66
2024-01-11T04:45:58.560Z,101660.31
2024-01-11T04:49:01.849Z,101656.19
2024-01-11T04:52:04.792Z,101657.06
2024-01-11T04:55:08.198Z,101650.19
2024-01-11T04:58:10.840Z,101654.50
2024-01-11T05:01:18.593Z,101648.22
2024-01-11T05:04:21.750Z,101658.59
2024-01-11T05:07:28.842Z,101645.12
2024-01-11T05:10:31.686Z,101652.19
2024-01-11T05:13:34.887Z,101652.38
2024-01-11T05:16:37.517Z,101655.03
2024-01-11T05:19:40.390Z,101651.66
2024-01-11T05:22:43.071Z,101647.19
2024-01-11T05:25:46.354Z,101649.12
2024-01-11T05:28:49.614Z,101640.03
2024-01-11T05:31:52.873Z,101640.03
2024-01-11T05:34:55.993Z,101650.34
2024-01-11T05:37:59.407Z,101659.66
2024-01-11T05:41:03.082Z,101660.37
2024-01-11T05:44:06.554Z,101652.84
2024-01-11T05:47:09.460Z,101652.91
2024-01-11T05:50:13.861Z,101653.78
2024-01-11T05:53:18.287Z,101652.16
2024-01-11T05:56:21.929Z,101653.53
2024-01-11T05:59:24.768Z,101655.13
2024-01-11T06:02:28.403Z,101650.22
2024-01-11T06:05:34.742Z,101657.34
2024-01-11T06:08:38.099Z,101655.44
2024-01-11T06:11:41.755Z,101648.44
2024-01-11T06:14:44.890Z,101647.56
2024-01-11T06:17:48.275Z,101641.38
2024-01-11T06:20:51.753Z,101631.22
2024-01-11T06:23:54.742Z,101636.16
2024-01-11T06:26:57.540Z,101642.16
2024-01-11T06:30:00.470Z,101640.53
2024-01-11T06:33:04.648Z,101629.66
2024-01-11T06:36:08.964Z,101636.28
2024-01-11T06:39:11.697Z,101640.78
2024-01-11T06:42:15.674Z,101635.81
2024-01-11T06:45:18.633Z,101624.03
2024-01-11T06:48:22.224Z,101629.31
2024-01-11T06:51:25.449Z,101626.91
2024-01-11T06:54:28.455Z,101625.47
2024-01-11T06:57:31.296Z,101625.44
2024-01-11T07:00:34.202Z,101630.19
2024-01-11T07:03:38.092Z,101628.09
2024-01-11T07:06:41.398Z,101624.22
2024-01-11T07:09:44.175Z,101620.34
2024-01-11T07:12:49.927Z,101624.38
2024-01-11T07:15:53.624Z,101626.94
2024-01-11T07:18:59.215Z,101623.34
2024-01-11T07:22:02.327Z,101617.16
2024-01-11T07:25:05.496Z,101604.19
2024-01-11T07:28:08.456Z,101611.66
2024-01-11T07:31:12.175Z,101615.72
2024-01-11T07:34:15.253Z,101621.94
2024-01-11T07:37:18.591Z,101621.34
2024-01-11T07:40:21.238Z,101620.25
2024-01-11T07:43:27.003Z,101612.22
2024-01-11T07:46:39.370Z,101614.41
2024-01-11T07:49:49.578Z,101606.28
2024-01-11T07:52:52.196Z,101605.91
2024-01-11T07:55:55.241Z,101612.84
2024-01-11T07:58:58.264Z,101605.31
2024-01-11T08:02:03.668Z,101598.97
2024-01-11T08:05:07.255Z,101591.31
2024-01-11T08:08:10.213Z,101591.44
2024-01-11T08:11:13.571Z,101589.00
2024-01-11T08:14:16.983Z,101588.44
2024-01-11T08:17:20.315Z,101581.91
2024-01-11T08:20:23.341Z,101578.69
2024-01-11T08:23:26.617Z,101576.31
2024-01-11T08:26:29.626Z,101575.94
2024-01-11T08:29:34.563Z,101565.69
2024-01-11T08:32:40.893Z,101562.53
2024-01-11T08:35:44.142Z,101566.16
2024-01-11T08:38:47.324Z,101561.66
2024-01-11T08:41:51.524Z,101547.25
2024-01-11T08:44:54.494Z,101549.25
2024-01-11T08:47:58.091Z,101541.78
2024-01-11T08:51:01.134Z,101538.94
2024-01-11T08:54:05.523Z,101550.19
2024-01-11T08:57:08.898Z,101558.84
2024-01-11T09:00:13.186Z,101566.72
2024-01-11T09:03:18.205Z,101554.50
2024-01-11T09:06:21.763Z,101545.72
2024-01-11T09:09:24.542Z,101551.72
2024-01-11T09:12:27.359Z,101542.09
2024-01-11T09:15:30.245Z,101538.44
2024-01-11T09:18:33.496Z,101549.63
2024-01-11T09:21:36.367Z,101544.41
2024-01-11T09:24:40.349Z,101538.34
2024-01-11T09:27:43.337Z,101533.31
2024-01-11T09:30:46.244Z,101529.09
2024-01-11T09:33:51.143Z,101516.22
2024-01-11T09:36:54.533Z,101500.56
2024-01-11T09:39:57.177Z,101503.12
2024-01-11T09:43:01.899Z,101484.91
2024-01-11T09:46:09.015Z,101469.31
2024-01-11T09:49:12.755Z,101458.91
2024-01-11T09:52:17.154Z,101453.72
2024-01-11T09:55:20.305Z,101442.50
2024-01-11T09:58:23.522Z,101439.06
2024-01-11T10:01:27.614Z,101445.97
2024-01-11T10:04:31.367Z,101444.28
2024-01-11T10:07:35.185Z,101440.00
2024-01-11T10:10:39.559Z,101425.28
2024-01-11T10:13:43.185Z,101424.41
2024-01-11T10:16:46.472Z,101410.53
2024-01-11T10:19:49.436Z,101407.06
2024-01-11T10:22:53.766Z,101393.16
2024-01-11T10:26:00.884Z,101405.28
2024-01-11T10:29:04.904Z,101390.56
2024-01-11T10:32:07.929Z,101397.50
2024-01-11T10:35:11.421Z,101397.53
2024-01-11T10:38:20.311Z,101387.13
2024-01-11T10:41:23.672Z,101381.91
2024-01-11T10:44:31.778Z,101381.03
2024-01-11T10:47:37.737Z,101387.06
2024-01-11T10:50:47.193Z,101376.69
2024-01-11T10:53:52.858Z,101365.41
2024-01-11T10:56:56.830Z,101364.53
2024-01-11T11:00:04.425Z,101353.28
2024-01-11T11:03:08.566Z,101337.69
2024-01-11T11:06:14.114Z,101322.97
2024-01-11T11:09:19.558Z,101341.16
2024-01-11T11:12:23.322Z,101335.97
2024-01-11T11:15:29.189Z,101329.00
2024-01-11T11:18:36.465Z,101333.34
2024-01-11T11:21:47.519Z,101332.50
2024-01-11T11:25:06.579Z,101331.59
2024-01-11T11:28:09.596Z,101335.06
2024-01-11T11:31:15.543Z,101332.47
2024-01-11T11:34:21.041Z,101318.63
2024-01-11T11:37:25.256Z,101312.56
2024-01-11T11:40:39.799Z,101298.66
2024-01-11T11:43:42.861Z,101287.41
2024-01-11T11:46:47.712Z,101292.59
2024-01-11T11:50:01.017Z,101302.16
2024-01-11T11:53:04.234Z,101308.19
2024-01-11T11:56:08.120Z,101289.16
2024-01-11T11:59:10.847Z,101285.69
2024-01-11T12:02:18.263Z,101276.12
2024-01-11T12:05:24.060Z,101274.41
2024-01-11T12:08:30.879Z,101277.00
2024-01-11T12:11:34.698Z,101258.84
2024-01-11T12:14:40.222Z,101259.69
2024-01-11T12:17:44.009Z,101261.41
2024-01-11T12:20:47.350Z,101252.75
2024-01-11T12:23:50.815Z,101251.84
2024-01-11T12:26:56.954Z,101250.97
2024-01-11T12:30:02.019Z,101234.50
2024-01-11T12:33:05.582Z,101251.81
2024-01-11T12:36:10.031Z,101249.19
2024-01-11T12:39:14.413Z,101243.91
2024-01-11T12:42:17.897Z,101255.13
2024-01-11T12:45:24.221Z,101250.75
2024-01-11T12:48:27.703Z,101249.91
2024-01-11T12:51:30.564Z,101236.81
2024-01-11T12:54:34.738Z,101238.50
2024-01-11T12:57:37.409Z,101232.47
2024-01-11T13:00:41.385Z,101223.06
2024-01-11T13:03:47.686Z,101221.41
2024-01-11T13:06:50.950Z,101214.44
2024-01-11T13:09:53.639Z,101209.25
2024-01-11T13:13:03.399Z,101204.84
2024-01-11T13:16:12.657Z,101194.25
2024-01-11T13:19:24.322Z,101187.91
2024-01-11T13:22:30.425Z,101184.47
2024-01-11T13:25:33.533Z,101182.63
2024-01-11T13:28:36.371Z,101175.59
2024-01-11T13:31:39.412Z,101172.06
2024-01-11T13:34:43.795Z,101170.38
2024-01-11T13:37:47.016Z,101173.19
2024-01-11T13:40:49.943Z,101177.47
2024-01-11T13:43:55.512Z,101167.06
2024-01-11T13:46:58.538Z,101161.09
2024-01-11T13:50:02.343Z,101145.50
2024-01-11T13:53:05.630Z,101135.22
2024-01-11T13:56:08.553Z,101125.88
2024-01-11T13:59:11.426Z,101118.09
2024-01-11T14:02:14.703Z,101112.03
2024-01-11T14:05:19.580Z,101112.94
2024-01-11T14:08:22.749Z,101106.91
2024-01-11T14:11:26.037Z,101096.62
2024-01-11T14:14:29.016Z,101069.81
2024-01-11T14:17:33.097Z,101079.41
2024-01-11T14:20:36.640Z,101072.50
2024-01-11T14:23:39.962Z,101069.91
2024-01-11T14:26:44.669Z,101069.06
2024-01-11T14:29:50.671Z,101064.75
2024-01-11T14:32:53.537Z,101058.62
2024-01-11T14:35:56.645Z,101066.47
2024-01-11T14:38:59.549Z,101061.28
2024-01-11T14:42:02.602Z,101070.81
2024-01-11T14:45:06.676Z,101064.75
2024-01-11T14:48:10.065Z,101060.47
2024-01-11T14:51:12.731Z,101071.75
2024-01-11T14:54:15.833Z,101068.31
2024-01-11T14:57:18.837Z,101051.88
2024-01-11T15:00:21.748Z,101029.38
2024-01-11T15:03:24.470Z,101042.34
2024-01-11T15:06:27.465Z,101044.09
2024-01-11T15:09:30.162Z,101041.50
2024-01-11T15:12:33.087Z,101057.03
2024-01-11T15:15:37.896Z,101041.44
2024-01-11T15:18:41.997Z,101046.63
2024-01-11T15:21:49.282Z,101044.03
2024-01-11T15:24:55.018Z,101051.78
2024-01-11T15:27:57.745Z,101063.03
2024-01-11T15:31:01.146Z,101056.09
2024-01-11T15:34:04.077Z,101044.00
2024-01-11T15:37:08.728Z,101039.63
2024-01-11T15:40:11.756Z,101028.38
2024-01-11T15:43:14.709Z,101031.81
2024-01-11T15:46:17.588Z,101030.94
2024-01-11T15:49:20.528Z,101033.59
2024-01-11T15:52:23.972Z,101031.88
2024-01-11T15:55:26.883Z,101023.25
2024-01-11T15:58:29.880Z,101018.06
2024-01-11T16:01:34.248Z,101031.03
2024-01-11T16:04:39.480Z,101021.53
2024-01-11T16:07:42.192Z,101022.34
2024-01-11T16:10:45.280Z,101033.50
2024-01-11T16:13:49.659Z,101030.06
2024-01-11T16:16:52.966Z,101019.75
2024-01-11T16:19:55.569Z,101030.94
2024-01-11T16:22:59.922Z,101017.91
2024-01-11T16:26:02.886Z,101003.22
2024-01-11T16:29:05.905Z,101013.59
2024-01-11T16:32:08.866Z,101001.47
